Time;durP1;ratioP1;P1;durP2;ratioP2;P2;SDS_P1;SDS_P2;PMS_P1;PMS_P2;Temp;Humidity;BMP_temperature;BMP_pressure;BME280_temperature;BME280_humidity;BME280_pressure;Samples;Min_cycle;Max_cycle;Signal;HPM_P1;HPM_P2
2021/03/01 00:02:11;;;;;;;2.85;1.80;;;;;;;18.74;52.31;103655.44;5080437;28;20539;-72
2021/03/01 00:04:36;;;;;;;2.63;1.10;;;;;;;18.73;52.40;103652.75;5074625;28;20486;-73
2021/03/01 00:07:02;;;;;;;3.22;1.40;;;;;;;18.70;52.64;103648.28;5060505;28;20024;-72
2021/03/01 00:09:27;;;;;;;2.25;1.83;;;;;;;18.72;52.34;103649.25;5077644;28;20108;-72
2021/03/01 00:11:52;;;;;;;1.98;1.35;;;;;;;18.68;52.52;103646.47;5061172;28;20110;-72
2021/03/01 00:14:18;;;;;;;1.90;1.50;;;;;;;18.65;52.42;103638.47;5072179;28;20486;-75
2021/03/01 00:16:43;;;;;;;2.20;1.30;;;;;;;18.70;52.56;103656.16;5076847;28;20055;-72
2021/03/01 00:19:08;;;;;;;1.88;1.30;;;;;;;18.69;52.18;103654.38;5073577;28;20032;-75
2021/03/01 00:21:34;;;;;;;2.50;1.35;;;;;;;18.69;52.30;103659.63;5061613;28;20378;-73
2021/03/01 00:23:59;;;;;;;2.42;1.52;;;;;;;18.64;52.44;103648.06;5093721;28;20032;-74
2021/03/01 00:26:24;;;;;;;3.25;2.00;;;;;;;18.65;52.34;103642.00;5087524;28;20024;-73
2021/03/01 00:28:50;;;;;;;1.80;1.15;;;;;;;18.69;52.31;103645.63;5076764;28;20825;-74
2021/03/01 00:31:15;;;;;;;1.83;1.30;;;;;;;18.67;52.46;103649.91;5078771;28;20424;-73
2021/03/01 00:33:40;;;;;;;2.33;1.50;;;;;;;18.63;52.36;103643.66;5056448;28;20119;-73
2021/03/01 00:36:06;;;;;;;1.92;1.40;;;;;;;18.66;52.43;103642.88;5073765;28;20043;-73
2021/03/01 00:38:31;;;;;;;2.15;1.88;;;;;;;18.64;52.09;103636.69;5063499;28;20020;-73
2021/03/01 00:40:57;;;;;;;1.63;1.27;;;;;;;18.63;52.28;103645.38;5083029;28;20021;-73
2021/03/01 00:43:22;;;;;;;1.73;1.42;;;;;;;18.59;52.21;103639.13;5075810;28;20031;-72
2021/03/01 00:45:47;;;;;;;2.85;1.42;;;;;;;18.61;52.41;103642.69;5066404;28;20028;-74
2021/03/01 00:48:13;;;;;;;1.92;1.27;;;;;;;18.55;52.58;103630.22;5061803;28;20459;-73
2021/03/01 00:50:39;;;;;;;1.90;1.20;;;;;;;18.59;52.33;103646.97;5079811;28;20086;-73
2021/03/01 00:53:04;;;;;;;1.80;1.27;;;;;;;18.63;52.44;103650.63;5085318;28;20466;-75
2021/03/01 00:55:30;;;;;;;2.47;1.52;;;;;;;18.56;52.35;103639.00;5083984;28;20032;-74
2021/03/01 00:57:55;;;;;;;1.90;1.63;;;;;;;18.59;52.54;103649.59;5076648;28;20080;-75
2021/03/01 01:00:21;;;;;;;2.30;1.73;;;;;;;18.56;52.01;103646.84;5055121;28;20052;-73
2021/03/01 01:02:46;;;;;;;1.38;1.10;;;;;;;18.58;52.52;103653.06;5065589;28;20032;-73
2021/03/01 01:05:12;;;;;;;1.73;1.27;;;;;;;18.55;52.39;103638.09;5086150;28;20085;-72
2021/03/01 01:07:38;;;;;;;3.10;1.50;;;;;;;18.57;52.54;103640.75;5061330;28;20474;-74
2021/03/01 01:10:06;;;;;;;2.90;1.40;;;;;;;18.57;52.47;103646.00;5077387;28;20048;-72
2021/03/01 01:12:36;;;;;;;2.80;2.00;;;;;;;18.59;52.34;103646.97;5060019;28;20025;-72
2021/03/01 01:15:05;;;;;;;1.95;1.35;;;;;;;18.50;52.46;103625.63;5083861;28;20036;-72
2021/03/01 01:17:31;;;;;;;1.23;1.00;;;;;;;18.50;52.38;103620.38;5078338;28;20032;-73
2021/03/01 01:19:56;;;;;;;1.67;1.30;;;;;;;18.56;52.40;103631.13;5065733;28;20492;-74
2021/03/01 01:22:21;;;;;;;1.52;1.02;;;;;;;18.58;52.31;103624.22;5053916;28;20420;-73
2021/03/01 01:24:47;;;;;;;2.47;1.10;;;;;;;18.49;52.33;103623.84;5090425;28;20031;-73
2021/03/01 01:27:12;;;;;;;1.83;1.33;;;;;;;18.51;52.50;103623.06;5079367;28;20040;-72
2021/03/01 01:29:40;;;;;;;2.05;1.42;;;;;;;18.52;52.55;103623.97;5061684;28;20039;-73
2021/03/01 01:32:05;;;;;;;2.55;1.35;;;;;;;18.54;52.35;103628.44;5054089;28;20032;-73
2021/03/01 01:34:30;;;;;;;1.92;1.55;;;;;;;18.54;52.40;103627.53;5069104;28;20103;-73
2021/03/01 01:36:56;;;;;;;2.13;1.40;;;;;;;18.48;52.32;103622.94;5078648;28;20074;-74
2021/03/01 01:39:21;;;;;;;1.65;1.38;;;;;;;18.53;52.27;103628.38;5083939;28;20028;-74
2021/03/01 01:41:46;;;;;;;1.15;0.98;;;;;;;18.51;52.33;103622.19;5073244;28;20151;-73
2021/03/01 01:44:12;;;;;;;1.70;1.40;;;;;;;18.50;52.47;103613.44;5088724;28;20019;-73
2021/03/01 01:46:37;;;;;;;2.50;1.20;;;;;;;18.51;52.44;103611.69;5084573;28;20029;-73
2021/03/01 01:49:03;;;;;;;2.53;1.48;;;;;;;18.47;52.13;103607.16;5087259;28;20055;-74
2021/03/01 01:51:28;;;;;;;2.83;1.63;;;;;;;18.34;52.43;103582.22;5072283;28;20025;-74
2021/03/01 01:53:54;;;;;;;2.97;1.45;;;;;;;18.50;52.38;103621.28;5060868;28;20372;-72
2021/03/01 01:56:19;;;;;;;2.35;1.65;;;;;;;18.42;52.15;103600.88;5086404;28;20145;-72
2021/03/01 01:58:45;;;;;;;2.28;1.38;;;;;;;18.47;52.24;103605.44;5079176;28;20048;-72
2021/03/01 02:01:10;;;;;;;1.75;1.30;;;;;;;18.47;52.31;103596.69;5078973;28;20051;-74
2021/03/01 02:03:45;;;;;;;1.90;1.10;;;;;;;18.47;52.28;103604.53;5053377;28;20024;-73
2021/03/01 02:06:35;;;;;;;1.50;1.30;;;;;;;18.45;52.04;103601.84;5085333;28;20024;-73
2021/03/01 02:09:18;;;;;;;1.92;1.40;;;;;;;18.48;52.42;103601.09;5082833;28;20024;-73
2021/03/01 02:12:07;;;;;;;1.98;1.35;;;;;;;18.46;52.29;103597.50;5078655;28;20402;-73
2021/03/01 02:14:47;;;;;;;1.83;1.23;;;;;;;18.43;52.31;103584.31;5083278;28;20470;-73
2021/03/01 02:17:12;;;;;;;1.60;1.27;;;;;;;18.44;52.24;103593.94;5094503;28;20028;-72
2021/03/01 02:19:38;;;;;;;1.63;1.23;;;;;;;18.41;52.43;103593.84;5063107;28;20021;-73
2021/03/01 02:22:04;;;;;;;1.98;1.42;;;;;;;18.45;52.46;103598.34;5088514;28;20089;-73
2021/03/01 02:24:37;;;;;;;1.95;1.67;;;;;;;18.42;52.45;103586.03;5081507;28;20438;-74
2021/03/01 02:27:03;;;;;;;2.67;1.70;;;;;;;18.39;52.33;103585.91;5080184;28;20028;-73
2021/03/01 02:29:30;;;;;;;2.00;1.30;;;;;;;18.38;52.38;103586.75;5056339;28;20058;-74
2021/03/01 02:32:00;;;;;;;1.90;1.42;;;;;;;18.42;51.84;103590.38;5081479;28;20032;-73
2021/03/01 02:34:31;;;;;;;2.08;1.65;;;;;;;18.36;52.14;103577.03;5086721;28;20024;-72
2021/03/01 02:36:59;;;;;;;2.42;1.70;;;;;;;18.37;51.88;103578.81;5085480;28;20032;-73
2021/03/01 02:39:27;;;;;;;1.80;1.48;;;;;;;18.40;52.44;103577.22;5078834;28;20039;-73
2021/03/01 02:41:54;;;;;;;1.77;1.50;;;;;;;18.41;51.97;103588.59;5088789;28;20030;-73
2021/03/01 02:44:20;;;;;;;2.40;1.40;;;;;;;18.42;51.97;103593.91;5086538;28;20092;-75
2021/03/01 02:46:47;;;;;;;1.70;1.38;;;;;;;18.35;51.96;103581.38;5099634;28;20045;-73
2021/03/01 02:49:13;;;;;;;3.38;1.23;;;;;;;18.40;52.27;103587.72;5084865;28;20028;-72
2021/03/01 02:51:41;;;;;;;1.67;1.08;;;;;;;18.39;51.91;103580.69;5088082;28;20021;-72
2021/03/01 02:54:07;;;;;;;1.60;1.27;;;;;;;18.39;51.92;103571.91;5085788;28;20028;-73
2021/03/01 02:56:33;;;;;;;2.80;1.70;;;;;;;18.39;52.16;103571.91;5088453;28;20038;-74
2021/03/01 02:59:00;;;;;;;2.75;1.60;;;;;;;18.34;51.94;103561.25;5087949;28;20059;-72
2021/03/01 03:01:27;;;;;;;2.47;1.42;;;;;;;18.34;52.28;103561.25;5074210;28;20062;-72
2021/03/01 03:03:54;;;;;;;2.20;1.45;;;;;;;18.33;52.18;103574.28;5072173;28;20032;-73
2021/03/01 03:06:23;;;;;;;2.20;1.48;;;;;;;18.35;52.12;103572.63;5076876;28;20088;-72
2021/03/01 03:08:52;;;;;;;3.00;1.52;;;;;;;18.30;52.01;103568.97;5089676;28;20016;-73
2021/03/01 03:11:19;;;;;;;2.45;1.92;;;;;;;18.34;52.09;103565.59;5091950;28;20047;-74
2021/03/01 03:13:56;;;;;;;1.98;1.75;;;;;;;18.35;52.01;103567.38;5060330;28;20037;-72
2021/03/01 03:16:25;;;;;;;2.10;1.58;;;;;;;18.33;51.91;103569.94;5082275;28;20027;-73
2021/03/01 03:18:53;;;;;;;1.75;1.15;;;;;;;18.27;51.74;103558.34;5075964;28;20038;-74
2021/03/01 03:21:19;;;;;;;2.42;1.58;;;;;;;18.33;51.69;103572.56;5090812;28;20028;-72
2021/03/01 03:23:44;;;;;;;1.65;1.20;;;;;;;18.28;52.05;103553.19;5086656;28;20085;-73
2021/03/01 03:26:13;;;;;;;3.13;1.55;;;;;;;18.29;51.88;103554.06;5084038;28;20028;-73
2021/03/01 03:28:38;;;;;;;1.50;1.20;;;;;;;18.29;51.98;103554.06;5090629;28;20031;-72
2021/03/01 03:31:04;;;;;;;2.67;1.70;;;;;;;18.25;52.16;103550.44;5090951;28;20379;-76
2021/03/01 03:33:29;;;;;;;2.88;1.88;;;;;;;18.33;51.70;103563.81;5056992;28;20040;-73
2021/03/01 03:35:54;;;;;;;2.00;1.48;;;;;;;18.26;51.87;103546.97;5061312;28;20021;-72
2021/03/01 03:38:29;;;;;;;1.98;1.50;;;;;;;18.33;52.25;103558.56;5084821;28;20030;-72
2021/03/01 03:40:59;;;;;;;2.78;1.83;;;;;;;18.28;51.74;103561.03;5084827;28;20051;-72
2021/03/01 03:43:26;;;;;;;2.38;1.45;;;;;;;18.30;51.75;103555.84;5083096;28;20083;-74
2021/03/01 03:45:54;;;;;;;2.00;1.52;;;;;;;18.23;51.78;103544.22;5075183;28;20532;-74
2021/03/01 03:48:23;;;;;;;2.05;1.58;;;;;;;18.26;51.79;103551.31;5089683;28;20035;-72
2021/03/01 03:50:53;;;;;;;1.80;1.20;;;;;;;18.25;51.97;103558.28;5083523;28;20478;-73
2021/03/01 03:53:23;;;;;;;2.38;1.60;;;;;;;18.30;51.69;103562.00;5088068;28;20474;-72
2021/03/01 03:55:48;;;;;;;2.28;1.58;;;;;;;18.26;51.68;103549.59;5083648;28;20047;-74
2021/03/01 03:58:18;;;;;;;2.38;1.70;;;;;;;18.21;51.85;103538.94;5056618;28;20123;-74
2021/03/01 04:00:47;;;;;;;2.50;1.65;;;;;;;18.23;51.82;103551.19;5081276;28;20051;-72
2021/03/01 04:03:14;;;;;;;3.35;1.85;;;;;;;18.27;51.85;103556.63;5079208;28;20027;-71
2021/03/01 04:05:42;;;;;;;2.33;1.70;;;;;;;18.27;51.53;103559.25;5072572;28;20029;-73
2021/03/01 04:08:10;;;;;;;2.72;1.98;;;;;;;18.28;51.59;103561.03;5077192;28;20397;-73
2021/03/01 04:10:36;;;;;;;1.90;1.50;;;;;;;18.19;51.73;103550.19;5089886;28;20128;-73
2021/03/01 04:13:08;;;;;;;2.55;1.67;;;;;;;18.19;51.78;103539.69;5084959;28;20085;-75
2021/03/01 04:15:35;;;;;;;3.05;1.40;;;;;;;18.20;51.49;103550.25;5084895;28;20374;-72
2021/03/01 04:18:01;;;;;;;2.28;1.80;;;;;;;18.19;51.54;103550.19;5079803;28;20446;-74
2021/03/01 04:20:27;;;;;;;2.63;1.70;;;;;;;18.21;51.63;103552.03;5068385;28;20548;-73
2021/03/01 04:22:56;;;;;;;2.70;1.70;;;;;;;18.21;51.55;103562.50;5062567;28;20034;-73
2021/03/01 04:25:22;;;;;;;2.33;1.75;;;;;;;18.26;51.62;103562.69;5091706;28;20115;-72
2021/03/01 04:27:49;;;;;;;2.85;1.85;;;;;;;18.23;51.60;103556.44;5086863;28;20120;-73
2021/03/01 04:30:15;;;;;;;2.10;1.58;;;;;;;18.18;51.52;103553.63;5076377;28;20032;-73
2021/03/01 04:32:44;;;;;;;2.03;1.50;;;;;;;18.25;51.56;103568.75;5078399;28;20029;-73
2021/03/01 04:35:12;;;;;;;2.13;1.63;;;;;;;18.24;51.53;103574.84;5085346;28;20461;-74
2021/03/01 04:37:38;;;;;;;2.00;1.60;;;;;;;18.21;51.56;103570.34;5099435;28;20025;-74
2021/03/01 04:40:04;;;;;;;2.92;1.85;;;;;;;18.18;51.56;103567.63;5062771;28;20043;-74
2021/03/01 04:42:32;;;;;;;2.53;1.80;;;;;;;18.18;51.60;103565.00;5096066;28;20513;-73
2021/03/01 04:44:58;;;;;;;2.65;1.38;;;;;;;18.26;51.42;103569.66;5083618;28;20119;-74
2021/03/01 04:47:27;;;;;;;1.48;1.27;;;;;;;18.27;51.41;103561.88;5083087;28;20028;-75
2021/03/01 04:49:54;;;;;;;2.30;1.48;;;;;;;18.37;51.15;103560.50;5088763;28;20107;-74
2021/03/01 04:52:21;;;;;;;3.65;2.13;;;;;;;18.27;51.19;103540.91;5085615;28;20058;-73
2021/03/01 04:54:49;;;;;;;1.83;1.40;;;;;;;18.33;51.41;103555.94;5093348;28;20099;-74
2021/03/01 04:57:16;;;;;;;2.33;1.58;;;;;;;18.38;51.06;103554.41;5064887;28;20493;-73
2021/03/01 04:59:41;;;;;;;2.55;1.30;;;;;;;18.46;51.04;103559.09;5085516;28;20458;-73
2021/03/01 05:02:08;;;;;;;1.85;1.35;;;;;;;18.38;51.40;103554.41;5078350;28;20059;-72
2021/03/01 05:04:34;;;;;;;2.45;2.10;;;;;;;18.40;51.22;103558.00;5083288;28;20035;-74
2021/03/01 05:07:00;;;;;;;2.58;2.08;;;;;;;18.50;51.25;103563.63;5060281;28;20031;-78
2021/03/01 05:09:25;;;;;;;2.17;1.58;;;;;;;18.43;51.27;103556.38;5078320;28;20112;-78
2021/03/01 05:11:50;;;;;;;1.88;1.50;;;;;;;18.45;51.55;103557.31;5083276;28;20024;-79
2021/03/01 05:14:16;;;;;;;2.70;1.77;;;;;;;18.49;51.31;103555.72;5079139;28;20086;-77
2021/03/01 05:16:41;;;;;;;2.63;1.60;;;;;;;18.48;51.28;103548.69;5055933;28;20020;-74
2021/03/01 05:19:07;;;;;;;2.08;1.50;;;;;;;18.52;51.36;103559.34;5080378;28;20032;-75
2021/03/01 05:21:32;;;;;;;2.13;1.55;;;;;;;18.50;51.40;103554.88;5081575;28;20082;-75
2021/03/01 05:23:57;;;;;;;3.10;1.88;;;;;;;18.49;51.36;103547.84;5060881;28;20035;-74
2021/03/01 05:26:23;;;;;;;3.85;1.85;;;;;;;18.58;51.57;103556.09;5081268;28;20024;-74
2021/03/01 05:28:48;;;;;;;2.72;1.70;;;;;;;18.58;51.58;103558.72;5075086;28;20523;-75
2021/03/01 05:31:15;;;;;;;2.95;1.77;;;;;;;18.53;51.44;103548.03;5089066;28;20032;-75
2021/03/01 05:33:41;;;;;;;2.40;2.00;;;;;;;18.62;51.18;103557.09;5077258;28;20031;-75
2021/03/01 05:36:07;;;;;;;3.22;1.30;;;;;;;18.64;51.07;103547.56;5082591;28;20033;-76
2021/03/01 05:38:32;;;;;;;3.30;1.50;;;;;;;18.72;50.91;103561.84;5075652;28;20099;-74
2021/03/01 05:41:01;;;;;;;2.63;1.95;;;;;;;18.65;50.92;103545.00;5069951;28;20429;-73
2021/03/01 05:43:27;;;;;;;2.40;1.80;;;;;;;18.69;50.96;103532.91;5083324;28;20052;-76
2021/03/01 05:45:53;;;;;;;2.20;1.77;;;;;;;18.72;50.88;103535.63;5088927;28;20028;-75
2021/03/01 05:48:22;;;;;;;4.13;2.03;;;;;;;18.70;50.77;103534.69;5083722;28;20024;-75
2021/03/01 05:50:53;;;;;;;2.15;1.75;;;;;;;18.80;50.91;103548.19;5091853;28;20554;-75
2021/03/01 05:53:24;;;;;;;2.70;1.83;;;;;;;18.84;50.78;103541.31;5082687;28;20028;-74
2021/03/01 05:55:50;;;;;;;4.50;1.90;;;;;;;18.82;50.80;103537.78;5091141;28;20066;-78
2021/03/01 05:58:17;;;;;;;3.75;1.83;;;;;;;18.83;51.00;103557.88;5095328;28;20044;-76
2021/03/01 06:00:44;;;;;;;1.90;1.58;;;;;;;18.75;50.90;103536.66;5086376;28;20029;-77
2021/03/01 06:03:09;;;;;;;3.17;1.73;;;;;;;18.83;50.91;103548.28;5090621;28;20032;-74
2021/03/01 06:05:34;;;;;;;1.90;1.63;;;;;;;18.73;50.89;103532.19;5066311;28;20043;-76
2021/03/01 06:08:00;;;;;;;2.22;1.73;;;;;;;18.75;50.95;103541.88;5084163;28;20727;-73
2021/03/01 06:10:26;;;;;;;2.20;1.60;;;;;;;18.81;50.84;103542.13;5066006;28;20035;-79
2021/03/01 06:12:51;;;;;;;2.63;1.58;;;;;;;18.82;50.67;103528.19;5059166;28;20053;-79
2021/03/01 06:15:19;;;;;;;2.92;1.83;;;;;;;18.82;50.65;103528.19;5058310;28;20123;-75
2021/03/01 06:18:24;;;;;;;2.17;1.58;;;;;;;18.85;50.87;103549.25;5086667;28;20031;-72
2021/03/01 06:20:50;;;;;;;3.20;2.20;;;;;;;18.84;50.78;103533.44;5016063;28;20092;-74
2021/03/01 06:23:32;;;;;;;4.00;2.30;;;;;;;18.88;50.59;103543.22;4994143;28;20128;-73
2021/03/01 06:26:34;;;;;;;5.88;2.30;;;;;;;18.86;51.22;103556.28;5035530;28;20044;-76
2021/03/01 06:29:02;;;;;;;5.78;2.75;;;;;;;18.86;51.12;103564.13;4998278;28;20423;-75
2021/03/01 06:31:38;;;;;;;3.35;2.17;;;;;;;18.88;51.20;103565.09;5063071;28;20375;-74
2021/03/01 06:34:22;;;;;;;4.43;2.50;;;;;;;18.88;51.44;103557.22;5087527;28;20035;-76
2021/03/01 06:37:08;;;;;;;5.88;2.50;;;;;;;18.86;51.27;103566.75;5098710;28;20042;-76
2021/03/01 06:39:48;;;;;;;6.07;3.22;;;;;;;18.90;51.66;103571.28;5082646;28;20386;-75
2021/03/01 06:42:19;;;;;;;7.50;2.88;;;;;;;18.90;51.75;103573.91;5097450;28;20040;-77
2021/03/01 06:45:07;;;;;;;5.03;2.53;;;;;;;18.88;51.70;103572.97;5085396;28;20034;-75
2021/03/01 06:47:52;;;;;;;3.70;2.40;;;;;;;18.92;51.62;103574.88;5091120;28;20032;-74
2021/03/01 06:50:34;;;;;;;5.85;3.03;;;;;;;18.92;51.64;103574.88;5087583;28;20028;-75
2021/03/01 06:53:04;;;;;;;3.50;2.28;;;;;;;18.89;51.67;103582.63;5079373;28;20021;-75
2021/03/01 06:55:30;;;;;;;3.38;2.17;;;;;;;18.87;51.59;103570.28;5080457;28;20024;-75
2021/03/01 06:57:57;;;;;;;5.30;3.53;;;;;;;18.91;51.78;103580.94;5082177;28;20052;-73
2021/03/01 07:00:27;;;;;;;4.15;2.70;;;;;;;18.87;51.68;103571.16;5081149;28;20124;-75
2021/03/01 07:02:56;;;;;;;3.25;2.45;;;;;;;18.87;51.70;103571.16;5084847;28;20035;-75
2021/03/01 07:05:24;;;;;;;6.25;3.00;;;;;;;18.94;51.54;103569.69;5084324;28;20028;-74
2021/03/01 07:07:49;;;;;;;2.92;2.03;;;;;;;18.86;51.73;103558.91;5084300;28;20131;-77
2021/03/01 07:10:15;;;;;;;3.22;2.13;;;;;;;18.92;51.69;103573.97;5082402;28;20059;-76
2021/03/01 07:12:43;;;;;;;4.07;2.20;;;;;;;18.92;51.58;103567.00;5083277;28;20469;-76
2021/03/01 07:15:13;;;;;;;4.63;3.13;;;;;;;18.95;51.69;103570.56;5082641;28;20024;-74
2021/03/01 07:17:41;;;;;;;3.33;2.33;;;;;;;18.92;51.62;103579.22;5085475;28;20039;-75
2021/03/01 07:20:09;;;;;;;4.35;2.15;;;;;;;18.92;51.41;103574.88;5094216;28;20016;-75
2021/03/01 07:22:40;;;;;;;5.55;2.30;;;;;;;18.96;51.66;103580.19;5093259;28;20063;-75
2021/03/01 07:25:09;;;;;;;4.18;2.33;;;;;;;18.96;51.72;103574.94;5080343;28;20036;-75
2021/03/01 07:27:38;;;;;;;3.00;2.25;;;;;;;18.90;51.39;103571.28;5082478;28;20099;-76
2021/03/01 07:30:05;;;;;;;2.72;1.83;;;;;;;18.92;51.52;103569.63;5093731;28;20016;-73
2021/03/01 07:32:31;;;;;;;3.95;2.50;;;;;;;18.95;51.54;103568.84;5078831;28;20463;-76
2021/03/01 07:34:56;;;;;;;2.60;1.75;;;;;;;18.86;51.60;103548.41;5080056;28;20077;-73
2021/03/01 07:37:22;;;;;;;4.22;2.55;;;;;;;18.95;51.15;103570.56;5074516;28;20048;-73
2021/03/01 07:39:47;;;;;;;3.75;2.38;;;;;;;18.98;51.34;103576.81;5080227;28;20043;-75
2021/03/01 07:42:15;;;;;;;3.47;2.10;;;;;;;18.97;51.39;103563.63;5080904;28;20025;-75
2021/03/01 07:44:41;;;;;;;2.92;2.15;;;;;;;18.96;51.18;103570.59;5082266;28;20033;-77
2021/03/01 07:47:08;;;;;;;3.45;2.15;;;;;;;19.00;51.12;103569.00;5068612;28;20032;-76
2021/03/01 07:49:36;;;;;;;2.83;2.20;;;;;;;19.06;51.11;103583.25;5072912;28;20021;-76
2021/03/01 07:52:02;;;;;;;3.45;2.75;;;;;;;19.04;51.15;103582.28;5079502;28;20064;-73
2021/03/01 07:54:51;;;;;;;3.38;2.15;;;;;;;19.07;51.23;103590.28;5091758;28;20021;-78
2021/03/01 07:57:18;;;;;;;3.05;2.10;;;;;;;19.01;50.97;103583.91;5084691;28;20027;-76
2021/03/01 07:59:44;;;;;;;3.42;2.10;;;;;;;19.05;51.01;103583.19;5075979;28;20048;-75
2021/03/01 08:02:11;;;;;;;2.72;1.92;;;;;;;19.02;51.12;103578.72;5089104;28;20035;-76
2021/03/01 08:04:37;;;;;;;2.97;1.83;;;;;;;19.03;51.11;103588.38;5088480;28;20073;-76
2021/03/01 08:07:03;;;;;;;3.35;1.90;;;;;;;19.05;51.07;103594.56;5091990;28;20441;-76
2021/03/01 08:09:52;;;;;;;2.67;1.80;;;;;;;19.05;51.14;103594.56;5076228;28;20433;-83
2021/03/01 08:12:29;;;;;;;2.20;1.60;;;;;;;19.05;51.26;103593.66;5084439;28;20028;-85
2021/03/01 08:14:58;;;;;;;3.53;2.70;;;;;;;19.05;50.97;103594.56;5081201;28;20039;-76
2021/03/01 08:17:30;;;;;;;2.95;2.05;;;;;;;19.08;50.94;103602.56;5088361;28;20116;-76
2021/03/01 08:20:16;;;;;;;3.10;2.10;;;;;;;19.04;51.09;103599.75;5095159;28;20086;-76
2021/03/01 08:23:10;;;;;;;2.58;1.88;;;;;;;19.06;50.98;103604.22;5078490;28;20052;-75
2021/03/01 08:25:54;;;;;;;2.60;1.77;;;;;;;19.09;51.10;103601.69;5076941;28;20028;-74
2021/03/01 08:28:23;;;;;;;2.55;1.83;;;;;;;19.07;50.99;103599.88;5085267;28;20063;-80
2021/03/01 08:30:51;;;;;;;3.13;2.05;;;;;;;19.08;51.08;103607.78;5083753;28;20032;-76
2021/03/01 08:33:16;;;;;;;6.28;2.35;;;;;;;19.10;50.94;103600.84;5073860;28;20037;-76
2021/03/01 08:35:51;;;;;;;3.08;1.75;;;;;;;19.09;51.05;103601.69;5080314;28;20017;-74
2021/03/01 08:38:42;;;;;;;2.90;2.03;;;;;;;19.09;50.91;103603.41;5073331;28;20024;-74
2021/03/01 08:41:10;;;;;;;3.45;1.90;;;;;;;19.11;50.84;103607.00;5086445;28;20028;-75
2021/03/01 08:43:37;;;;;;;2.10;1.55;;;;;;;19.11;50.73;103607.88;5086677;28;20570;-74
2021/03/01 08:46:28;;;;;;;3.75;2.13;;;;;;;19.10;50.83;103600.84;5075983;28;20020;-74
2021/03/01 08:48:56;;;;;;;2.95;1.90;;;;;;;19.12;50.77;103587.78;5076672;28;20044;-74
2021/03/01 08:51:22;;;;;;;2.97;2.10;;;;;;;19.14;50.77;103602.75;5075512;28;20474;-74
2021/03/01 08:53:52;;;;;;;2.78;2.22;;;;;;;19.10;50.63;103600.84;5088533;28;20386;-75
2021/03/01 08:56:24;;;;;;;3.22;1.90;;;;;;;19.12;50.75;103587.78;5074537;28;20107;-75
2021/03/01 08:58:50;;;;;;;1.90;1.40;;;;;;;19.13;50.61;103593.09;5069403;28;20052;-75
2021/03/01 09:01:16;;;;;;;2.60;1.83;;;;;;;19.14;50.73;103600.13;5071478;28;20155;-75
2021/03/01 09:03:43;;;;;;;2.40;1.80;;;;;;;19.16;50.62;103600.19;5080717;28;20036;-75
2021/03/01 09:06:11;;;;;;;2.10;1.52;;;;;;;19.19;50.64;103595.06;5059063;28;20036;-76
2021/03/01 09:08:44;;;;;;;2.42;1.75;;;;;;;19.19;50.68;103595.06;5078828;28;20062;-75
2021/03/01 09:11:18;;;;;;;3.15;1.75;;;;;;;19.16;50.53;103587.97;5075990;28;20020;-74
2021/03/01 09:13:48;;;;;;;2.38;1.55;;;;;;;19.15;50.54;103585.28;5083549;28;20482;-74
2021/03/01 09:16:26;;;;;;;2.88;1.95;;;;;;;19.20;50.50;103586.34;5080742;28;20028;-75
2021/03/01 09:18:56;;;;;;;2.40;1.60;;;;;;;19.19;50.55;103579.31;5077625;28;20025;-75
2021/03/01 09:21:34;;;;;;;3.00;2.22;;;;;;;19.14;50.42;103570.38;5072979;28;20027;-75
2021/03/01 09:23:59;;;;;;;2.70;1.48;;;;;;;19.13;50.45;103568.59;5073927;28;20032;-74
2021/03/01 09:26:29;;;;;;;2.65;1.73;;;;;;;19.19;50.51;103580.22;5070092;28;20494;-75
2021/03/01 09:28:58;;;;;;;2.08;1.58;;;;;;;19.12;50.24;103570.31;5082590;28;20070;-74
2021/03/01 09:31:25;;;;;;;2.22;1.55;;;;;;;19.15;50.68;103583.56;5081814;28;20155;-73
2021/03/01 09:33:52;;;;;;;2.45;1.77;;;;;;;19.11;50.66;103580.75;5079793;28;20465;-74
2021/03/01 09:36:18;;;;;;;2.42;1.60;;;;;;;19.09;50.74;103575.44;5076764;28;20033;-73
2021/03/01 09:38:51;;;;;;;2.30;1.80;;;;;;;18.94;50.82;103545.19;5073352;28;20036;-74
2021/03/01 09:41:17;;;;;;;2.13;1.42;;;;;;;19.05;50.67;103563.09;5054428;28;20039;-74
2021/03/01 09:43:43;;;;;;;2.72;1.95;;;;;;;19.04;50.57;103568.28;5059380;28;20041;-76
2021/03/01 09:46:11;;;;;;;2.38;1.77;;;;;;;19.02;50.77;103567.31;5086264;28;20111;-74
2021/03/01 09:48:54;;;;;;;2.70;1.88;;;;;;;19.03;50.76;103572.63;5089975;28;20106;-74
2021/03/01 09:51:21;;;;;;;2.65;1.60;;;;;;;19.01;50.77;103570.78;5070743;28;20144;-74
2021/03/01 09:53:47;;;;;;;4.28;2.22;;;;;;;19.03;50.61;103572.63;5083990;28;20028;-75
2021/03/01 09:56:13;;;;;;;2.00;1.50;;;;;;;19.02;50.77;103572.56;5081217;28;20035;-75
2021/03/01 09:58:43;;;;;;;2.70;1.75;;;;;;;19.04;50.63;103576.16;5091830;28;20052;-75
2021/03/01 10:01:18;;;;;;;2.50;1.80;;;;;;;19.03;50.72;103571.72;5079327;28;20500;-75
2021/03/01 10:03:46;;;;;;;3.53;2.25;;;;;;;19.00;50.63;103571.63;5079646;28;20093;-74
2021/03/01 10:06:14;;;;;;;2.63;1.77;;;;;;;19.01;50.72;103565.53;5081237;28;20031;-75
2021/03/01 10:08:40;;;;;;;2.60;1.88;;;;;;;18.97;50.78;103553.16;5092093;28;20016;-75
2021/03/01 10:11:26;;;;;;;3.25;2.28;;;;;;;18.99;50.72;103555.00;5082966;28;20037;-74
2021/03/01 10:14:01;;;;;;;3.30;2.42;;;;;;;18.96;50.53;103549.63;5074974;28;20021;-74
2021/03/01 10:16:51;;;;;;;2.20;1.67;;;;;;;18.95;50.81;103542.63;5073893;28;20494;-74
2021/03/01 10:19:23;;;;;;;2.25;1.80;;;;;;;18.95;50.69;103544.34;5081946;28;20024;-75
2021/03/01 10:21:50;;;;;;;3.33;2.28;;;;;;;19.00;50.52;103558.50;5077903;28;20103;-74
2021/03/01 10:24:18;;;;;;;2.63;1.98;;;;;;;18.99;50.63;103560.22;5073437;28;20035;-74
2021/03/01 10:26:53;;;;;;;2.50;1.85;;;;;;;19.00;50.52;103548.00;5070106;28;20033;-75
2021/03/01 10:29:32;;;;;;;2.90;2.00;;;;;;;18.92;50.42;103534.63;5081458;28;20042;-75
2021/03/01 10:31:58;;;;;;;2.90;1.98;;;;;;;18.99;50.51;103557.59;5077582;28;20043;-75
2021/03/01 10:34:31;;;;;;;4.00;1.95;;;;;;;19.01;50.47;103555.03;5066355;28;20389;-75
2021/03/01 10:36:58;;;;;;;3.38;2.20;;;;;;;18.99;50.38;103543.59;5077159;28;20471;-74
2021/03/01 10:39:30;;;;;;;4.78;2.78;;;;;;;18.98;50.38;103554.94;5077908;28;20036;-75
2021/03/01 10:41:58;;;;;;;2.50;1.80;;;;;;;18.97;50.67;103553.16;5089238;28;20027;-74
2021/03/01 10:44:32;;;;;;;3.83;1.95;;;;;;;18.96;50.41;103557.50;5080255;28;20024;-73
2021/03/01 10:47:11;;;;;;;2.72;2.15;;;;;;;18.96;50.50;103557.50;5081124;28;20051;-74
2021/03/01 10:49:37;;;;;;;3.70;2.00;;;;;;;18.92;50.35;103546.03;5076463;28;20482;-73
2021/03/01 10:52:06;;;;;;;3.83;2.22;;;;;;;18.95;50.51;103544.34;5079395;28;20051;-74
2021/03/01 10:54:31;;;;;;;3.15;2.25;;;;;;;18.93;50.38;103546.91;5073537;28;20410;-75
2021/03/01 10:56:57;;;;;;;3.00;2.10;;;;;;;18.97;50.47;103547.91;5061028;28;20082;-74
2021/03/01 10:59:24;;;;;;;3.90;2.55;;;;;;;18.97;50.40;103553.16;5064174;28;20052;-74
2021/03/01 11:01:50;;;;;;;3.60;2.47;;;;;;;18.97;50.42;103553.16;5077717;28;20035;-74
2021/03/01 11:04:16;;;;;;;3.85;2.50;;;;;;;18.92;50.32;103548.66;5067929;28;20485;-74
2021/03/01 11:06:42;;;;;;;4.60;2.17;;;;;;;18.93;50.57;103549.53;5074409;28;20031;-73
2021/03/01 11:09:10;;;;;;;2.45;1.75;;;;;;;18.89;50.36;103527.56;5086558;28;20115;-76
2021/03/01 11:11:36;;;;;;;3.13;2.20;;;;;;;18.95;50.35;103539.13;5073539;28;20032;-75
2021/03/01 11:14:03;;;;;;;2.83;2.10;;;;;;;18.93;50.36;103541.66;5081419;28;20028;-74
2021/03/01 11:16:28;;;;;;;4.35;2.10;;;;;;;18.94;49.95;103537.31;5079790;28;20028;-73
2021/03/01 11:18:54;;;;;;;3.28;2.00;;;;;;;18.94;50.20;103539.94;5083191;28;20035;-74
2021/03/01 11:21:19;;;;;;;3.47;1.98;;;;;;;18.96;50.34;103543.50;5077150;28;20457;-73
2021/03/01 11:23:45;;;;;;;4.32;2.45;;;;;;;18.92;50.35;103529.41;5073678;28;20031;-73
2021/03/01 11:26:11;;;;;;;4.25;2.25;;;;;;;18.91;50.18;103525.88;5072132;28;20379;-74
2021/03/01 11:28:36;;;;;;;3.10;2.20;;;;;;;18.97;50.41;103540.91;5082130;28;20081;-74
2021/03/01 11:31:02;;;;;;;3.15;2.13;;;;;;;18.90;50.46;103524.09;5084295;28;20059;-73
2021/03/01 11:33:28;;;;;;;3.05;1.95;;;;;;;18.94;50.35;103522.47;5073208;28;20356;-74